sensor_id;sensor_type;location;lat;lon;timestamp;temperature;humidity
26103;DHT22;32703;49.182;9.042;2022-09-01T00:02:18;16.80;99.90
26103;DHT22;32703;49.182;9.042;2022-09-01T00:04:44;16.80;99.90
26103;DHT22;32703;49.182;9.042;2022-09-01T00:07:12;16.70;99.90
26103;DHT22;32703;49.182;9.042;2022-09-01T00:09:38;16.70;99.90
26103;DHT22;32703;49.182;9.042;2022-09-01T00:12:06;16.60;99.90
26103;DHT22;32703;49.182;9.042;2022-09-01T00:14:35;16.60;99.90
26103;DHT22;32703;49.182;9.042;2022-09-01T00:17:04;16.60;99.90
26103;DHT22;32703;49.182;9.042;2022-09-01T00:19:31;16.50;99.90
26103;DHT22;32703;49.182;9.042;2022-09-01T00:21:58;16.50;99.90
26103;DHT22;32703;49.182;9.042;2022-09-01T00:24:25;16.50;99.90
26103;DHT22;32703;49.182;9.042;2022-09-01T00:26:51;16.50;99.90
26103;DHT22;32703;49.182;9.042;2022-09-01T00:29:17;16.50;99.90
26103;DHT22;32703;49.182;9.042;2022-09-01T00:31:43;16.40;99.90
26103;DHT22;32703;49.182;9.042;2022-09-01T00:34:09;16.40;99.90
26103;DHT22;32703;49.182;9.042;2022-09-01T00:36:35;16.40;99.90
26103;DHT22;32703;49.182;9.042;2022-09-01T00:39:01;16.40;99.90
26103;DHT22;32703;49.182;9.042;2022-09-01T00:41:29;16.40;99.90
26103;DHT22;32703;49.182;9.042;2022-09-01T00:43:58;16.40;99.90
26103;DHT22;32703;49.182;9.042;2022-09-01T00:46:30;16.40;99.90
26103;DHT22;32703;49.182;9.042;2022-09-01T00:49:19;16.40;99.90
26103;DHT22;32703;49.182;9.042;2022-09-01T00:51:50;16.30;99.90
26103;DHT22;32703;49.182;9.042;2022-09-01T00:54:22;16.30;99.90
26103;DHT22;32703;49.182;9.042;2022-09-01T00:56:49;16.40;99.90
26103;DHT22;32703;49.182;9.042;2022-09-01T00:59:17;16.30;99.90
26103;DHT22;32703;49.182;9.042;2022-09-01T01:01:44;16.40;99.90
26103;DHT22;32703;49.182;9.042;2022-09-01T01:04:10;16.40;99.90
26103;DHT22;32703;49.182;9.042;2022-09-01T01:06:46;16.30;99.90
26103;DHT22;32703;49.182;9.042;2022-09-01T01:09:19;16.30;99.90
26103;DHT22;32703;49.182;9.042;2022-09-01T01:11:45;16.30;99.90
26103;DHT22;32703;49.182;9.042;2022-09-01T01:14:12;16.30;99.90
26103;DHT22;32703;49.182;9.042;2022-09-01T01:16:44;16.30;99.90
26103;DHT22;32703;49.182;9.042;2022-09-01T01:22:07;16.20;99.90
26103;DHT22;32703;49.182;9.042;2022-09-01T01:24:53;16.20;99.90
26103;DHT22;32703;49.182;9.042;2022-09-01T01:27:20;16.10;99.90
26103;DHT22;32703;49.182;9.042;2022-09-01T01:29:46;16.20;99.90
26103;DHT22;32703;49.182;9.042;2022-09-01T01:32:13;16.20;99.90
26103;DHT22;32703;49.182;9.042;2022-09-01T01:34:39;16.10;99.90
26103;DHT22;32703;49.182;9.042;2022-09-01T01:37:07;16.10;99.90
26103;DHT22;32703;49.182;9.042;2022-09-01T01:39:35;16.10;99.90
26103;DHT22;32703;49.182;9.042;2022-09-01T01:42:05;16.10;99.90
26103;DHT22;32703;49.182;9.042;2022-09-01T01:44:35;16.10;99.90
26103;DHT22;32703;49.182;9.042;2022-09-01T01:47:04;16.20;99.90
26103;DHT22;32703;49.182;9.042;2022-09-01T01:49:35;16.10;99.90
26103;DHT22;32703;49.182;9.042;2022-09-01T01:52:01;16.10;99.90
26103;DHT22;32703;49.182;9.042;2022-09-01T01:54:29;16.00;99.90
26103;DHT22;32703;49.182;9.042;2022-09-01T01:56:55;16.10;99.90
26103;DHT22;32703;49.182;9.042;2022-09-01T01:59:23;16.10;99.90
26103;DHT22;32703;49.182;9.042;2022-09-01T02:01:49;16.00;99.90
26103;DHT22;32703;49.182;9.042;2022-09-01T02:04:17;16.00;99.90
26103;DHT22;32703;49.182;9.042;2022-09-01T02:06:46;16.00;99.90
26103;DHT22;32703;49.182;9.042;2022-09-01T02:09:13;16.00;99.90
26103;DHT22;32703;49.182;9.042;2022-09-01T02:11:39;16.00;99.90
26103;DHT22;32703;49.182;9.042;2022-09-01T02:14:06;16.00;99.90
26103;DHT22;32703;49.182;9.042;2022-09-01T02:16:34;16.00;99.90
26103;DHT22;32703;49.182;9.042;2022-09-01T02:19:01;15.90;99.90
26103;DHT22;32703;49.182;9.042;2022-09-01T02:21:27;15.90;99.90
26103;DHT22;32703;49.182;9.042;2022-09-01T02:23:58;16.00;99.90
26103;DHT22;32703;49.182;9.042;2022-09-01T02:26:34;15.90;99.90
26103;DHT22;32703;49.182;9.042;2022-09-01T02:29:05;15.90;99.90
26103;DHT22;32703;49.182;9.042;2022-09-01T02:31:32;15.90;99.90
26103;DHT22;32703;49.182;9.042;2022-09-01T02:34:00;15.90;99.90
26103;DHT22;32703;49.182;9.042;2022-09-01T02:36:26;15.90;99.90
26103;DHT22;32703;49.182;9.042;2022-09-01T02:38:53;15.90;99.90
26103;DHT22;32703;49.182;9.042;2022-09-01T02:41:19;15.90;99.90
26103;DHT22;32703;49.182;9.042;2022-09-01T02:43:47;15.90;99.90
26103;DHT22;32703;49.182;9.042;2022-09-01T02:46:13;15.90;99.90
26103;DHT22;32703;49.182;9.042;2022-09-01T02:48:41;15.80;99.90
26103;DHT22;32703;49.182;9.042;2022-09-01T02:51:14;15.90;99.90
26103;DHT22;32703;49.182;9.042;2022-09-01T02:53:40;15.80;99.90
26103;DHT22;32703;49.182;9.042;2022-09-01T02:56:08;15.80;99.90
26103;DHT22;32703;49.182;9.042;2022-09-01T02:58:37;15.80;99.90
26103;DHT22;32703;49.182;9.042;2022-09-01T03:01:12;15.80;99.90
26103;DHT22;32703;49.182;9.042;2022-09-01T03:03:38;15.80;99.90
26103;DHT22;32703;49.182;9.042;2022-09-01T03:06:04;15.80;99.90
26103;DHT22;32703;49.182;9.042;2022-09-01T03:08:31;15.80;99.90
26103;DHT22;32703;49.182;9.042;2022-09-01T03:10:59;15.80;99.90
26103;DHT22;32703;49.182;9.042;2022-09-01T03:13:26;15.60;99.90
26103;DHT22;32703;49.182;9.042;2022-09-01T03:15:53;15.70;99.90
26103;DHT22;32703;49.182;9.042;2022-09-01T03:18:19;15.60;99.90
26103;DHT22;32703;49.182;9.042;2022-09-01T03:20:45;15.60;99.90
26103;DHT22;32703;49.182;9.042;2022-09-01T03:23:14;15.50;99.90
26103;DHT22;32703;49.182;9.042;2022-09-01T03:25:44;15.50;99.90
26103;DHT22;32703;49.182;9.042;2022-09-01T03:28:11;15.50;99.90
26103;DHT22;32703;49.182;9.042;2022-09-01T03:30:40;15.60;99.90
26103;DHT22;32703;49.182;9.042;2022-09-01T03:33:08;15.40;99.90
26103;DHT22;32703;49.182;9.042;2022-09-01T03:35:33;15.40;99.90
26103;DHT22;32703;49.182;9.042;2022-09-01T03:38:00;15.40;99.90
26103;DHT22;32703;49.182;9.042;2022-09-01T03:40:32;15.40;99.90
26103;DHT22;32703;49.182;9.042;2022-09-01T03:42:59;15.30;99.90
26103;DHT22;32703;49.182;9.042;2022-09-01T03:45:24;15.30;99.90
26103;DHT22;32703;49.182;9.042;2022-09-01T03:47:53;15.30;99.90
26103;DHT22;32703;49.182;9.042;2022-09-01T03:50:21;15.30;99.90
26103;DHT22;32703;49.182;9.042;2022-09-01T03:52:47;15.20;99.90
26103;DHT22;32703;49.182;9.042;2022-09-01T03:55:22;15.20;99.90
26103;DHT22;32703;49.182;9.042;2022-09-01T03:57:49;15.20;99.90
26103;DHT22;32703;49.182;9.042;2022-09-01T04:00:16;15.20;99.90
26103;DHT22;32703;49.182;9.042;2022-09-01T04:02:48;15.20;99.90
26103;DHT22;32703;49.182;9.042;2022-09-01T04:05:18;15.20;99.90
26103;DHT22;32703;49.182;9.042;2022-09-01T04:07:46;15.20;99.90
26103;DHT22;32703;49.182;9.042;2022-09-01T04:10:13;15.20;99.90
26103;DHT22;32703;49.182;9.042;2022-09-01T04:12:39;15.10;99.90
26103;DHT22;32703;49.182;9.042;2022-09-01T04:15:05;15.10;99.90
26103;DHT22;32703;49.182;9.042;2022-09-01T04:17:32;15.00;99.90
26103;DHT22;32703;49.182;9.042;2022-09-01T04:20:17;15.00;99.90
26103;DHT22;32703;49.182;9.042;2022-09-01T04:22:48;14.90;99.90
26103;DHT22;32703;49.182;9.042;2022-09-01T04:25:15;14.80;99.90
26103;DHT22;32703;49.182;9.042;2022-09-01T04:27:41;14.70;99.90
26103;DHT22;32703;49.182;9.042;2022-09-01T04:30:10;14.70;99.90
26103;DHT22;32703;49.182;9.042;2022-09-01T04:32:36;14.70;99.90
26103;DHT22;32703;49.182;9.042;2022-09-01T04:35:03;14.70;99.90
26103;DHT22;32703;49.182;9.042;2022-09-01T04:37:29;14.60;99.90
26103;DHT22;32703;49.182;9.042;2022-09-01T04:39:56;14.60;99.90
26103;DHT22;32703;49.182;9.042;2022-09-01T04:42:24;14.60;99.90
26103;DHT22;32703;49.182;9.042;2022-09-01T04:44:51;14.80;99.90
26103;DHT22;32703;49.182;9.042;2022-09-01T04:47:18;14.70;99.90
26103;DHT22;32703;49.182;9.042;2022-09-01T04:49:45;14.60;99.90
26103;DHT22;32703;49.182;9.042;2022-09-01T04:52:11;14.60;99.90
26103;DHT22;32703;49.182;9.042;2022-09-01T04:54:37;14.60;99.90
26103;DHT22;32703;49.182;9.042;2022-09-01T04:57:03;14.60;99.90
26103;DHT22;32703;49.182;9.042;2022-09-01T04:59:31;14.60;99.90
26103;DHT22;32703;49.182;9.042;2022-09-01T05:01:58;14.60;99.90
26103;DHT22;32703;49.182;9.042;2022-09-01T05:04:27;14.60;99.90
26103;DHT22;32703;49.182;9.042;2022-09-01T05:06:55;14.60;99.90
26103;DHT22;32703;49.182;9.042;2022-09-01T05:09:26;14.70;99.90
26103;DHT22;32703;49.182;9.042;2022-09-01T05:11:52;14.70;99.90
26103;DHT22;32703;49.182;9.042;2022-09-01T05:14:18;14.80;99.90
26103;DHT22;32703;49.182;9.042;2022-09-01T05:16:47;14.90;99.90
26103;DHT22;32703;49.182;9.042;2022-09-01T05:19:13;15.00;99.90
26103;DHT22;32703;49.182;9.042;2022-09-01T05:21:40;15.00;99.90
26103;DHT22;32703;49.182;9.042;2022-09-01T05:24:15;15.10;99.90
26103;DHT22;32703;49.182;9.042;2022-09-01T05:26:42;15.10;99.90
26103;DHT22;32703;49.182;9.042;2022-09-01T05:29:09;15.20;99.90
26103;DHT22;32703;49.182;9.042;2022-09-01T05:31:43;15.30;99.90
26103;DHT22;32703;49.182;9.042;2022-09-01T05:34:10;15.40;99.90
26103;DHT22;32703;49.182;9.042;2022-09-01T05:36:42;15.50;99.90
26103;DHT22;32703;49.182;9.042;2022-09-01T05:39:09;15.70;99.90
26103;DHT22;32703;49.182;9.042;2022-09-01T05:41:37;15.80;99.90
26103;DHT22;32703;49.182;9.042;2022-09-01T05:44:04;16.00;99.90
26103;DHT22;32703;49.182;9.042;2022-09-01T05:46:33;16.10;99.90
26103;DHT22;32703;49.182;9.042;2022-09-01T05:49:02;16.20;99.90
26103;DHT22;32703;49.182;9.042;2022-09-01T05:51:29;16.40;99.90
26103;DHT22;32703;49.182;9.042;2022-09-01T05:53:58;16.40;99.90
26103;DHT22;32703;49.182;9.042;2022-09-01T05:56:29;16.50;99.90
26103;DHT22;32703;49.182;9.042;2022-09-01T05:58:54;16.50;99.90
26103;DHT22;32703;49.182;9.042;2022-09-01T06:01:24;16.70;99.90
26103;DHT22;32703;49.182;9.042;2022-09-01T06:03:53;16.70;99.90
26103;DHT22;32703;49.182;9.042;2022-09-01T06:06:20;16.80;99.90
26103;DHT22;32703;49.182;9.042;2022-09-01T06:08:51;16.80;99.90
26103;DHT22;32703;49.182;9.042;2022-09-01T06:11:18;16.90;99.90
26103;DHT22;32703;49.182;9.042;2022-09-01T06:13:44;17.00;99.90
26103;DHT22;32703;49.182;9.042;2022-09-01T06:16:15;17.10;99.90
26103;DHT22;32703;49.182;9.042;2022-09-01T06:18:41;17.20;99.90
26103;DHT22;32703;49.182;9.042;2022-09-01T06:21:08;17.30;99.90
26103;DHT22;32703;49.182;9.042;2022-09-01T06:23:42;17.50;99.90
26103;DHT22;32703;49.182;9.042;2022-09-01T06:26:29;17.60;99.90
26103;DHT22;32703;49.182;9.042;2022-09-01T06:28:56;17.70;99.90
26103;DHT22;32703;49.182;9.042;2022-09-01T06:31:27;17.90;99.90
26103;DHT22;32703;49.182;9.042;2022-09-01T06:33:54;18.00;99.90
26103;DHT22;32703;49.182;9.042;2022-09-01T06:36:23;18.10;99.90
26103;DHT22;32703;49.182;9.042;2022-09-01T06:38:50;18.20;99.90
26103;DHT22;32703;49.182;9.042;2022-09-01T06:41:17;18.20;99.90
26103;DHT22;32703;49.182;9.042;2022-09-01T06:43:53;18.40;99.90
26103;DHT22;32703;49.182;9.042;2022-09-01T06:46:20;18.40;99.90
26103;DHT22;32703;49.182;9.042;2022-09-01T06:48:46;18.60;99.90
26103;DHT22;32703;49.182;9.042;2022-09-01T06:51:19;18.70;99.90
26103;DHT22;32703;49.182;9.042;2022-09-01T06:53:48;18.70;99.90
26103;DHT22;32703;49.182;9.042;2022-09-01T06:56:18;18.80;99.90
26103;DHT22;32703;49.182;9.042;2022-09-01T06:58:44;18.80;99.90
26103;DHT22;32703;49.182;9.042;2022-09-01T07:01:16;18.90;99.90
26103;DHT22;32703;49.182;9.042;2022-09-01T07:03:45;19.10;99.90
26103;DHT22;32703;49.182;9.042;2022-09-01T07:06:13;19.20;99.90
26103;DHT22;32703;49.182;9.042;2022-09-01T07:08:40;19.30;99.90
26103;DHT22;32703;49.182;9.042;2022-09-01T07:11:08;19.30;99.90
26103;DHT22;32703;49.182;9.042;2022-09-01T07:13:41;19.40;99.90
26103;DHT22;32703;49.182;9.042;2022-09-01T07:16:06;19.30;99.90
26103;DHT22;32703;49.182;9.042;2022-09-01T07:18:32;19.40;99.80
26103;DHT22;32703;49.182;9.042;2022-09-01T07:20:59;19.50;99.40
26103;DHT22;32703;49.182;9.042;2022-09-01T07:23:25;19.60;99.00
26103;DHT22;32703;49.182;9.042;2022-09-01T07:25:52;19.60;99.20
26103;DHT22;32703;49.182;9.042;2022-09-01T07:28:20;19.70;99.00
26103;DHT22;32703;49.182;9.042;2022-09-01T07:30:50;19.80;98.80
26103;DHT22;32703;49.182;9.042;2022-09-01T07:33:19;19.80;98.90
26103;DHT22;32703;49.182;9.042;2022-09-01T07:35:49;19.80;98.50
26103;DHT22;32703;49.182;9.042;2022-09-01T07:38:18;19.90;98.40
26103;DHT22;32703;49.182;9.042;2022-09-01T07:40:44;20.00;97.90
26103;DHT22;32703;49.182;9.042;2022-09-01T07:43:17;20.00;97.80
26103;DHT22;32703;49.182;9.042;2022-09-01T07:45:47;20.00;97.60
26103;DHT22;32703;49.182;9.042;2022-09-01T07:48:18;20.00;97.80
26103;DHT22;32703;49.182;9.042;2022-09-01T07:50:49;20.10;97.60
26103;DHT22;32703;49.182;9.042;2022-09-01T07:53:19;20.30;96.90
26103;DHT22;32703;49.182;9.042;2022-09-01T07:55:48;20.30;96.80
26103;DHT22;32703;49.182;9.042;2022-09-01T07:58:16;20.40;96.80
26103;DHT22;32703;49.182;9.042;2022-09-01T08:00:42;20.50;96.50
26103;DHT22;32703;49.182;9.042;2022-09-01T08:03:11;20.60;96.00
26103;DHT22;32703;49.182;9.042;2022-09-01T08:05:36;20.70;95.50
26103;DHT22;32703;49.182;9.042;2022-09-01T08:08:03;20.80;95.30
26103;DHT22;32703;49.182;9.042;2022-09-01T08:10:29;20.90;95.20
26103;DHT22;32703;49.182;9.042;2022-09-01T08:12:55;21.10;94.80
26103;DHT22;32703;49.182;9.042;2022-09-01T08:15:21;21.20;94.60
26103;DHT22;32703;49.182;9.042;2022-09-01T08:17:46;21.40;93.90
26103;DHT22;32703;49.182;9.042;2022-09-01T08:20:12;21.60;93.10
26103;DHT22;32703;49.182;9.042;2022-09-01T08:22:38;21.60;92.70
26103;DHT22;32703;49.182;9.042;2022-09-01T08:25:08;21.70;92.70
26103;DHT22;32703;49.182;9.042;2022-09-01T08:27:36;21.80;92.30
26103;DHT22;32703;49.182;9.042;2022-09-01T08:30:05;22.10;92.20
26103;DHT22;32703;49.182;9.042;2022-09-01T08:32:32;22.30;91.80
26103;DHT22;32703;49.182;9.042;2022-09-01T08:34:58;22.60;91.00
26103;DHT22;32703;49.182;9.042;2022-09-01T08:37:23;22.90;90.20
26103;DHT22;32703;49.182;9.042;2022-09-01T08:39:50;23.00;89.30
26103;DHT22;32703;49.182;9.042;2022-09-01T08:45:27;23.20;87.20
26103;DHT22;32703;49.182;9.042;2022-09-01T08:47:55;23.10;87.70
26103;DHT22;32703;49.182;9.042;2022-09-01T08:50:22;23.10;86.80
26103;DHT22;32703;49.182;9.042;2022-09-01T08:52:56;23.10;86.50
26103;DHT22;32703;49.182;9.042;2022-09-01T08:55:44;23.10;86.40
26103;DHT22;32703;49.182;9.042;2022-09-01T08:58:15;23.50;85.50
26103;DHT22;32703;49.182;9.042;2022-09-01T09:00:44;23.70;82.40
26103;DHT22;32703;49.182;9.042;2022-09-01T09:16:38;24.10;79.00
26103;DHT22;32703;49.182;9.042;2022-09-01T09:19:16;24.20;78.10
26103;DHT22;32703;49.182;9.042;2022-09-01T09:21:49;24.30;78.10
26103;DHT22;32703;49.182;9.042;2022-09-01T09:27:50;24.70;75.60
26103;DHT22;32703;49.182;9.042;2022-09-01T09:32:45;24.50;75.50
26103;DHT22;32703;49.182;9.042;2022-09-01T09:35:21;24.70;75.40
26103;DHT22;32703;49.182;9.042;2022-09-01T09:37:47;25.00;73.60
26103;DHT22;32703;49.182;9.042;2022-09-01T09:40:16;25.20;73.20
26103;DHT22;32703;49.182;9.042;2022-09-01T09:45:27;25.20;72.70
26103;DHT22;32703;49.182;9.042;2022-09-01T09:47:55;25.20;73.40
26103;DHT22;32703;49.182;9.042;2022-09-01T09:50:28;25.60;72.70
26103;DHT22;32703;49.182;9.042;2022-09-01T09:55:57;26.60;68.80
26103;DHT22;32703;49.182;9.042;2022-09-01T09:58:27;27.00;65.80
26103;DHT22;32703;49.182;9.042;2022-09-01T10:00:59;27.10;65.10
26103;DHT22;32703;49.182;9.042;2022-09-01T10:06:29;26.90;63.70
26103;DHT22;32703;49.182;9.042;2022-09-01T10:08:55;26.70;64.20
26103;DHT22;32703;49.182;9.042;2022-09-01T10:11:28;26.40;65.00
26103;DHT22;32703;49.182;9.042;2022-09-01T10:13:54;26.50;65.50
26103;DHT22;32703;49.182;9.042;2022-09-01T10:16:30;26.90;64.60
26103;DHT22;32703;49.182;9.042;2022-09-01T10:18:58;27.20;63.60
26103;DHT22;32703;49.182;9.042;2022-09-01T10:21:36;27.40;62.30
26103;DHT22;32703;49.182;9.042;2022-09-01T10:24:28;27.50;61.60
26103;DHT22;32703;49.182;9.042;2022-09-01T10:26:58;27.20;61.50
26103;DHT22;32703;49.182;9.042;2022-09-01T10:29:34;26.80;63.00
26103;DHT22;32703;49.182;9.042;2022-09-01T10:32:03;26.50;64.00
26103;DHT22;32703;49.182;9.042;2022-09-01T10:34:34;26.20;64.30
26103;DHT22;32703;49.182;9.042;2022-09-01T10:37:02;26.00;63.80
26103;DHT22;32703;49.182;9.042;2022-09-01T10:39:27;25.80;64.30
26103;DHT22;32703;49.182;9.042;2022-09-01T10:42:00;25.70;65.10
26103;DHT22;32703;49.182;9.042;2022-09-01T10:44:34;25.70;65.40
26103;DHT22;32703;49.182;9.042;2022-09-01T10:47:23;25.90;65.20
26103;DHT22;32703;49.182;9.042;2022-09-01T11:01:03;27.30;59.60
26103;DHT22;32703;49.182;9.042;2022-09-01T11:03:35;27.60;58.50
26103;DHT22;32703;49.182;9.042;2022-09-01T11:06:06;27.80;57.40
26103;DHT22;32703;49.182;9.042;2022-09-01T11:11:10;28.00;58.00
26103;DHT22;32703;49.182;9.042;2022-09-01T11:13:45;28.10;57.70
26103;DHT22;32703;49.182;9.042;2022-09-01T11:16:35;28.10;57.30
26103;DHT22;32703;49.182;9.042;2022-09-01T11:19:28;28.10;57.70
26103;DHT22;32703;49.182;9.042;2022-09-01T11:25:04;28.20;56.10
26103;DHT22;32703;49.182;9.042;2022-09-01T11:27:55;28.10;55.90
26103;DHT22;32703;49.182;9.042;2022-09-01T11:42:00;27.50;57.70
26103;DHT22;32703;49.182;9.042;2022-09-01T11:44:58;27.90;56.60
26103;DHT22;32703;49.182;9.042;2022-09-01T11:47:26;28.60;55.90
26103;DHT22;32703;49.182;9.042;2022-09-01T11:49:58;29.50;54.40
26103;DHT22;32703;49.182;9.042;2022-09-01T11:52:27;30.20;52.60
26103;DHT22;32703;49.182;9.042;2022-09-01T11:54:55;30.80;51.30
26103;DHT22;32703;49.182;9.042;2022-09-01T11:57:31;31.20;50.50
26103;DHT22;32703;49.182;9.042;2022-09-01T11:59:59;31.60;48.70
26103;DHT22;32703;49.182;9.042;2022-09-01T12:02:29;31.20;49.20
26103;DHT22;32703;49.182;9.042;2022-09-01T12:04:57;30.80;49.90
26103;DHT22;32703;49.182;9.042;2022-09-01T12:07:33;30.70;50.20
26103;DHT22;32703;49.182;9.042;2022-09-01T12:10:01;30.90;49.70
26103;DHT22;32703;49.182;9.042;2022-09-01T12:15:00;31.00;49.40
26103;DHT22;32703;49.182;9.042;2022-09-01T12:17:26;31.00;49.10
26103;DHT22;32703;49.182;9.042;2022-09-01T12:19:52;31.20;49.10
26103;DHT22;32703;49.182;9.042;2022-09-01T12:22:20;31.50;49.00
26103;DHT22;32703;49.182;9.042;2022-09-01T12:24:53;31.90;47.30
26103;DHT22;32703;49.182;9.042;2022-09-01T12:27:20;31.50;47.20
26103;DHT22;32703;49.182;9.042;2022-09-01T12:29:48;30.70;48.20
26103;DHT22;32703;49.182;9.042;2022-09-01T12:32:15;29.80;49.50
26103;DHT22;32703;49.182;9.042;2022-09-01T12:35:01;28.90;51.60
26103;DHT22;32703;49.182;9.042;2022-09-01T12:37:27;28.30;53.40
26103;DHT22;32703;49.182;9.042;2022-09-01T12:39:55;28.20;52.50
26103;DHT22;32703;49.182;9.042;2022-09-01T12:44:58;28.10;52.70
26103;DHT22;32703;49.182;9.042;2022-09-01T12:52:28;27.20;55.50
26103;DHT22;32703;49.182;9.042;2022-09-01T12:57:33;27.50;54.60
26103;DHT22;32703;49.182;9.042;2022-09-01T13:02:39;27.70;54.70
26103;DHT22;32703;49.182;9.042;2022-09-01T13:05:25;28.00;54.60
26103;DHT22;32703;49.182;9.042;2022-09-01T13:07:56;28.50;54.20
26103;DHT22;32703;49.182;9.042;2022-09-01T13:10:23;28.90;53.60
26103;DHT22;32703;49.182;9.042;2022-09-01T13:12:50;29.20;52.70
26103;DHT22;32703;49.182;9.042;2022-09-01T13:15:16;29.40;52.80
26103;DHT22;32703;49.182;9.042;2022-09-01T13:17:42;29.40;52.50
26103;DHT22;32703;49.182;9.042;2022-09-01T13:20:08;29.20;52.50
26103;DHT22;32703;49.182;9.042;2022-09-01T13:22:36;29.00;52.60
26103;DHT22;32703;49.182;9.042;2022-09-01T13:25:03;28.70;53.30
26103;DHT22;32703;49.182;9.042;2022-09-01T13:27:28;28.30;53.90
26103;DHT22;32703;49.182;9.042;2022-09-01T13:29:54;27.90;54.70
26103;DHT22;32703;49.182;9.042;2022-09-01T13:32:22;27.50;55.40
26103;DHT22;32703;49.182;9.042;2022-09-01T13:34:49;27.10;56.20
26103;DHT22;32703;49.182;9.042;2022-09-01T13:37:15;26.60;57.00
26103;DHT22;32703;49.182;9.042;2022-09-01T13:39:40;26.10;58.10
26103;DHT22;32703;49.182;9.042;2022-09-01T13:42:06;25.80;58.80
26103;DHT22;32703;49.182;9.042;2022-09-01T13:44:32;25.40;59.50
26103;DHT22;32703;49.182;9.042;2022-09-01T13:46:58;25.20;59.90
26103;DHT22;32703;49.182;9.042;2022-09-01T13:49:23;25.10;60.50
26103;DHT22;32703;49.182;9.042;2022-09-01T13:51:52;25.10;60.50
26103;DHT22;32703;49.182;9.042;2022-09-01T13:54:19;25.00;60.50
26103;DHT22;32703;49.182;9.042;2022-09-01T13:56:44;25.10;60.30
26103;DHT22;32703;49.182;9.042;2022-09-01T13:59:10;25.10;59.90
26103;DHT22;32703;49.182;9.042;2022-09-01T14:01:35;25.30;59.50
26103;DHT22;32703;49.182;9.042;2022-09-01T14:04:01;25.50;59.20
26103;DHT22;32703;49.182;9.042;2022-09-01T14:06:31;25.70;58.70
26103;DHT22;32703;49.182;9.042;2022-09-01T14:08:56;25.90;58.50
26103;DHT22;32703;49.182;9.042;2022-09-01T14:11:24;26.10;58.20
26103;DHT22;32703;49.182;9.042;2022-09-01T14:13:51;26.20;57.50
26103;DHT22;32703;49.182;9.042;2022-09-01T14:16:17;26.40;57.30
26103;DHT22;32703;49.182;9.042;2022-09-01T14:18:42;26.70;56.70
26103;DHT22;32703;49.182;9.042;2022-09-01T14:21:13;27.00;56.40
26103;DHT22;32703;49.182;9.042;2022-09-01T14:23:41;27.20;55.10
26103;DHT22;32703;49.182;9.042;2022-09-01T14:26:11;27.30;54.80
26103;DHT22;32703;49.182;9.042;2022-09-01T14:28:37;27.10;55.10
26103;DHT22;32703;49.182;9.042;2022-09-01T14:31:08;26.90;55.90
26103;DHT22;32703;49.182;9.042;2022-09-01T14:33:34;26.80;56.90
26103;DHT22;32703;49.182;9.042;2022-09-01T14:36:00;26.60;56.50
26103;DHT22;32703;49.182;9.042;2022-09-01T14:38:27;26.50;56.50
26103;DHT22;32703;49.182;9.042;2022-09-01T14:40:53;26.20;56.30
26103;DHT22;32703;49.182;9.042;2022-09-01T14:43:19;25.90;56.80
26103;DHT22;32703;49.182;9.042;2022-09-01T14:45:44;25.60;57.50
26103;DHT22;32703;49.182;9.042;2022-09-01T14:48:14;25.40;57.90
26103;DHT22;32703;49.182;9.042;2022-09-01T14:50:45;25.20;58.40
26103;DHT22;32703;49.182;9.042;2022-09-01T14:53:11;25.00;58.40
26103;DHT22;32703;49.182;9.042;2022-09-01T14:55:37;24.90;58.30
26103;DHT22;32703;49.182;9.042;2022-09-01T14:58:03;24.70;58.40
26103;DHT22;32703;49.182;9.042;2022-09-01T15:00:30;24.70;58.50
26103;DHT22;32703;49.182;9.042;2022-09-01T15:02:59;24.70;58.50
26103;DHT22;32703;49.182;9.042;2022-09-01T15:05:25;24.60;58.40
26103;DHT22;32703;49.182;9.042;2022-09-01T15:07:51;24.60;58.50
26103;DHT22;32703;49.182;9.042;2022-09-01T15:10:19;24.50;58.80
26103;DHT22;32703;49.182;9.042;2022-09-01T15:12:45;24.40;59.20
26103;DHT22;32703;49.182;9.042;2022-09-01T15:15:11;24.40;59.80
26103;DHT22;32703;49.182;9.042;2022-09-01T15:17:37;24.40;60.20
26103;DHT22;32703;49.182;9.042;2022-09-01T15:20:03;24.40;60.40
26103;DHT22;32703;49.182;9.042;2022-09-01T15:22:49;24.40;60.90
26103;DHT22;32703;49.182;9.042;2022-09-01T15:25:15;24.30;60.90
26103;DHT22;32703;49.182;9.042;2022-09-01T15:27:41;24.30;61.40
26103;DHT22;32703;49.182;9.042;2022-09-01T15:30:08;24.20;61.50
26103;DHT22;32703;49.182;9.042;2022-09-01T15:32:39;24.20;61.60
26103;DHT22;32703;49.182;9.042;2022-09-01T15:35:06;24.20;61.70
26103;DHT22;32703;49.182;9.042;2022-09-01T15:37:31;24.20;61.60
26103;DHT22;32703;49.182;9.042;2022-09-01T15:39:57;24.20;61.70
26103;DHT22;32703;49.182;9.042;2022-09-01T15:42:23;24.10;61.70
26103;DHT22;32703;49.182;9.042;2022-09-01T15:44:48;24.20;61.80
26103;DHT22;32703;49.182;9.042;2022-09-01T15:47:14;24.20;61.80
26103;DHT22;32703;49.182;9.042;2022-09-01T15:49:39;24.20;61.70
26103;DHT22;32703;49.182;9.042;2022-09-01T15:52:05;24.20;61.90
26103;DHT22;32703;49.182;9.042;2022-09-01T15:54:31;24.10;62.00
26103;DHT22;32703;49.182;9.042;2022-09-01T15:57:00;24.10;62.30
26103;DHT22;32703;49.182;9.042;2022-09-01T15:59:27;24.10;62.60
26103;DHT22;32703;49.182;9.042;2022-09-01T16:01:52;24.10;62.90
26103;DHT22;32703;49.182;9.042;2022-09-01T16:04:18;24.10;63.10
26103;DHT22;32703;49.182;9.042;2022-09-01T16:06:44;24.00;63.20
26103;DHT22;32703;49.182;9.042;2022-09-01T16:09:11;24.00;63.30
26103;DHT22;32703;49.182;9.042;2022-09-01T16:11:39;24.00;63.10
26103;DHT22;32703;49.182;9.042;2022-09-01T16:14:04;24.00;63.20
26103;DHT22;32703;49.182;9.042;2022-09-01T16:24:59;24.00;62.80
26103;DHT22;32703;49.182;9.042;2022-09-01T16:27:32;24.00;62.50
26103;DHT22;32703;49.182;9.042;2022-09-01T16:30:07;24.10;62.40
26103;DHT22;32703;49.182;9.042;2022-09-01T16:32:37;24.10;61.50
26103;DHT22;32703;49.182;9.042;2022-09-01T16:35:04;24.10;61.30
26103;DHT22;32703;49.182;9.042;2022-09-01T16:37:54;24.20;60.90
26103;DHT22;32703;49.182;9.042;2022-09-01T16:43:18;24.30;60.10
26103;DHT22;32703;49.182;9.042;2022-09-01T16:46:17;24.30;60.10
26103;DHT22;32703;49.182;9.042;2022-09-01T16:49:09;24.40;60.00
26103;DHT22;32703;49.182;9.042;2022-09-01T16:52:02;24.40;59.70
26103;DHT22;32703;49.182;9.042;2022-09-01T16:59:54;24.10;59.40
26103;DHT22;32703;49.182;9.042;2022-09-01T17:05:31;23.80;59.90
26103;DHT22;32703;49.182;9.042;2022-09-01T17:08:12;23.60;60.10
26103;DHT22;32703;49.182;9.042;2022-09-01T17:10:47;23.50;60.50
26103;DHT22;32703;49.182;9.042;2022-09-01T17:13:30;23.40;60.70
26103;DHT22;32703;49.182;9.042;2022-09-01T17:16:24;23.30;61.10
26103;DHT22;32703;49.182;9.042;2022-09-01T17:18:56;23.10;61.40
26103;DHT22;32703;49.182;9.042;2022-09-01T17:27:04;22.70;62.30